createdAt,value
2023-02-24T00:01:26.544Z,8.00
2023-02-24T00:03:53.921Z,7.92
2023-02-24T00:06:20.355Z,8.03
2023-02-24T00:08:47.272Z,8.17
2023-02-24T00:11:15.159Z,8.16
2023-02-24T00:13:46.396Z,8.09
2023-02-24T00:16:17.616Z,8.03
2023-02-24T00:18:45.550Z,8.01
2023-02-24T00:21:15.346Z,7.99
2023-02-24T00:23:46.304Z,7.98
2023-02-24T00:26:15.349Z,7.86
2023-02-24T00:28:42.619Z,7.67
2023-02-24T00:31:17.065Z,7.76
2023-02-24T00:33:45.485Z,7.73
2023-02-24T00:36:23.828Z,7.57
2023-02-24T00:38:58.514Z,7.60
2023-02-24T00:41:29.301Z,7.67
2023-02-24T00:44:09.627Z,7.70
2023-02-24T00:46:38.869Z,7.56
2023-02-24T00:49:10.415Z,7.56
2023-02-24T00:51:41.777Z,7.49
2023-02-24T00:54:10.154Z,7.66
2023-02-24T00:56:36.835Z,7.69
2023-02-24T00:59:03.440Z,7.73
2023-02-24T01:01:32.729Z,7.70
2023-02-24T01:04:07.015Z,7.69
2023-02-24T01:07:01.610Z,7.63
2023-02-24T01:09:30.549Z,7.55
2023-02-24T01:12:16.569Z,7.56
2023-02-24T01:14:45.629Z,7.50
2023-02-24T01:17:11.931Z,7.53
2023-02-24T01:19:38.287Z,7.52
2023-02-24T01:22:08.841Z,7.49
2023-02-24T01:24:38.487Z,7.55
2023-02-24T01:27:05.981Z,7.52
2023-02-24T01:29:32.324Z,7.54
2023-02-24T01:31:59.181Z,7.40
2023-02-24T01:34:27.397Z,7.35
2023-02-24T01:36:54.273Z,7.23
2023-02-24T01:39:21.661Z,7.22
2023-02-24T01:41:50.193Z,7.20
2023-02-24T01:44:18.074Z,7.21
2023-02-24T01:46:47.968Z,7.16
2023-02-24T01:49:38.529Z,7.13
2023-02-24T01:52:24.255Z,7.08
2023-02-24T01:54:50.575Z,7.10
2023-02-24T01:57:20.632Z,7.07
2023-02-24T01:59:49.663Z,7.01
2023-02-24T02:02:16.872Z,7.00
2023-02-24T02:04:50.960Z,6.98
2023-02-24T02:07:19.874Z,7.01
2023-02-24T02:09:48.142Z,6.93
2023-02-24T02:12:15.104Z,6.92
2023-02-24T02:14:47.887Z,6.94
2023-02-24T02:17:40.805Z,6.91
2023-02-24T02:20:39.289Z,6.91
2023-02-24T02:23:40.917Z,6.90
2023-02-24T02:26:43.374Z,6.89
2023-02-24T02:29:36.577Z,6.90
2023-02-24T02:32:12.003Z,6.89
2023-02-24T02:34:45.262Z,6.88
2023-02-24T02:37:28.352Z,6.88
2023-02-24T02:40:21.932Z,6.87
2023-02-24T02:42:58.875Z,6.84
2023-02-24T02:45:47.560Z,6.84
2023-02-24T02:48:25.569Z,6.86
2023-02-24T02:50:55.180Z,6.97
2023-02-24T02:53:49.371Z,6.93
2023-02-24T02:56:35.243Z,6.94
2023-02-24T02:59:03.121Z,6.95
2023-02-24T03:01:33.773Z,6.96
2023-02-24T03:04:05.848Z,6.83
2023-02-24T03:06:40.928Z,6.89
2023-02-24T03:09:15.942Z,6.87
2023-02-24T03:11:48.107Z,6.86
2023-02-24T03:14:17.013Z,6.87
2023-02-24T03:16:46.111Z,6.88
2023-02-24T03:19:15.534Z,6.89
2023-02-24T03:21:45.680Z,6.84
2023-02-24T03:24:15.333Z,6.81
2023-02-24T03:26:52.635Z,6.82
2023-02-24T03:29:24.411Z,6.85
2023-02-24T03:31:55.276Z,6.82
2023-02-24T03:34:39.094Z,6.82
2023-02-24T03:37:05.699Z,6.82
2023-02-24T03:39:32.705Z,6.78
2023-02-24T03:42:07.019Z,6.80
2023-02-24T03:44:33.729Z,6.82
2023-02-24T03:47:01.460Z,6.82
2023-02-24T03:49:27.811Z,6.78
2023-02-24T03:52:29.153Z,6.69
2023-02-24T03:55:29.677Z,6.68
2023-02-24T03:58:04.635Z,6.65
2023-02-24T04:00:55.716Z,6.69
2023-02-24T04:03:32.964Z,6.79
2023-02-24T04:06:11.432Z,6.71
2023-02-24T04:08:47.384Z,6.68
2023-02-24T04:11:24.184Z,6.76
2023-02-24T04:14:01.729Z,6.78
2023-02-24T04:16:43.126Z,6.75
2023-02-24T04:19:16.705Z,6.76
2023-02-24T04:21:45.678Z,6.90
2023-02-24T04:24:15.806Z,6.91
2023-02-24T04:26:45.782Z,6.86
2023-02-24T04:29:17.617Z,6.88
2023-02-24T04:31:51.752Z,6.79
2023-02-24T04:34:20.023Z,6.73
2023-02-24T04:36:50.398Z,6.87
2023-02-24T04:39:23.268Z,6.84
2023-02-24T04:41:49.856Z,6.77
2023-02-24T04:44:20.969Z,6.72
2023-02-24T04:46:49.837Z,6.72
2023-02-24T04:49:17.958Z,6.64
2023-02-24T04:51:45.209Z,6.68
2023-02-24T04:54:17.291Z,6.67
2023-02-24T04:56:48.346Z,6.67
2023-02-24T04:59:15.127Z,6.65
2023-02-24T05:01:43.814Z,6.66
2023-02-24T05:04:12.079Z,6.64
2023-02-24T05:06:43.695Z,6.63
2023-02-24T05:09:19.372Z,6.59
2023-02-24T05:11:50.620Z,6.60
2023-02-24T05:14:20.870Z,6.54
2023-02-24T05:16:48.966Z,6.54
2023-02-24T05:19:36.571Z,6.58
2023-02-24T05:22:04.696Z,6.63
2023-02-24T05:24:31.505Z,6.63
2023-02-24T05:27:03.508Z,6.54
2023-02-24T05:29:32.903Z,6.62
2023-02-24T05:32:00.151Z,6.59
2023-02-24T05:34:30.422Z,6.52
2023-02-24T05:36:58.797Z,6.50
2023-02-24T05:39:26.286Z,6.55
2023-02-24T05:41:54.655Z,6.48
2023-02-24T05:44:23.319Z,6.52
2023-02-24T05:46:56.509Z,6.50
2023-02-24T05:49:26.996Z,6.57
2023-02-24T05:52:00.609Z,6.60
2023-02-24T05:54:33.015Z,6.52
2023-02-24T05:57:02.009Z,6.61
2023-02-24T05:59:32.904Z,6.50
2023-02-24T06:02:07.030Z,6.46
2023-02-24T06:04:40.259Z,6.39
2023-02-24T06:07:18.882Z,6.48
2023-02-24T06:09:53.793Z,6.45
2023-02-24T06:12:22.867Z,6.41
2023-02-24T06:14:49.216Z,6.45
2023-02-24T06:17:17.026Z,6.42
2023-02-24T06:19:44.330Z,6.41
2023-02-24T06:22:15.026Z,6.45
2023-02-24T06:24:44.560Z,6.46
2023-02-24T06:27:21.338Z,6.46
2023-02-24T06:29:51.938Z,6.43
2023-02-24T06:32:20.753Z,6.51
2023-02-24T06:34:47.289Z,6.48
2023-02-24T06:37:14.658Z,6.48
2023-02-24T06:39:41.690Z,6.47
2023-02-24T06:42:08.866Z,6.48
2023-02-24T06:44:38.300Z,6.50
2023-02-24T06:47:07.120Z,6.66
2023-02-24T06:49:33.883Z,6.61
2023-02-24T06:52:00.284Z,6.65
2023-02-24T06:54:30.864Z,6.59
2023-02-24T06:57:00.294Z,6.55
2023-02-24T06:59:29.581Z,6.57
2023-02-24T07:01:57.266Z,6.55
2023-02-24T07:04:27.795Z,6.57
2023-02-24T07:07:02.880Z,6.56
2023-02-24T07:09:30.871Z,6.59
2023-02-24T07:11:58.691Z,6.61
2023-02-24T07:14:29.139Z,6.62
2023-02-24T07:16:55.804Z,6.56
2023-02-24T07:19:26.042Z,6.59
2023-02-24T07:21:59.977Z,6.64
2023-02-24T07:24:36.449Z,6.65
2023-02-24T07:27:09.347Z,6.70
2023-02-24T07:29:37.565Z,6.67
2023-02-24T07:32:06.776Z,6.70
2023-02-24T07:34:33.666Z,6.76
2023-02-24T07:37:03.348Z,6.70
2023-02-24T07:39:29.774Z,6.70
2023-02-24T07:41:57.010Z,6.69
2023-02-24T07:44:26.039Z,6.92
2023-02-24T07:46:52.463Z,6.77
2023-02-24T07:49:23.369Z,6.73
2023-02-24T07:51:52.962Z,6.66
2023-02-24T07:54:21.167Z,6.66
2023-02-24T07:56:56.216Z,6.67
2023-02-24T07:59:28.086Z,6.77
2023-02-24T08:01:55.883Z,6.77
2023-02-24T08:04:32.247Z,6.79
2023-02-24T08:07:03.339Z,6.82
2023-02-24T08:09:46.865Z,6.84
2023-02-24T08:12:22.342Z,6.87
2023-02-24T08:14:53.122Z,6.91
2023-02-24T08:17:26.132Z,6.94
2023-02-24T08:20:12.749Z,6.98
2023-02-24T08:22:44.333Z,7.02
2023-02-24T08:25:18.098Z,7.04
2023-02-24T08:28:06.328Z,7.08
2023-02-24T08:30:38.780Z,7.15
2023-02-24T08:33:10.805Z,7.11
2023-02-24T08:35:44.226Z,7.15
2023-02-24T08:38:16.827Z,7.18
2023-02-24T08:40:54.897Z,7.19
2023-02-24T08:43:40.906Z,7.27
2023-02-24T08:46:13.747Z,7.31
2023-02-24T08:48:43.285Z,7.47
2023-02-24T08:51:22.509Z,7.46
2023-02-24T08:53:55.587Z,7.47
2023-02-24T08:56:30.879Z,7.52
2023-02-24T08:59:05.205Z,7.53
2023-02-24T09:01:38.094Z,7.57
2023-02-24T09:04:11.073Z,7.57
2023-02-24T09:06:46.459Z,7.56
2023-02-24T09:09:18.358Z,7.73
2023-02-24T09:11:55.992Z,7.72
2023-02-24T09:14:28.454Z,7.69
2023-02-24T09:17:05.569Z,7.77
2023-02-24T09:19:40.612Z,7.88
2023-02-24T09:22:21.304Z,7.84
2023-02-24T09:24:50.902Z,7.96
2023-02-24T09:27:17.475Z,7.93
2023-02-24T09:29:49.229Z,7.96
2023-02-24T09:32:16.250Z,7.97
2023-02-24T09:34:43.917Z,7.99
2023-02-24T09:37:24.886Z,8.22
2023-02-24T09:39:58.118Z,8.18
2023-02-24T09:42:28.510Z,8.24
2023-02-24T09:45:01.581Z,8.20
2023-02-24T09:47:55.545Z,8.29
2023-02-24T09:50:47.262Z,8.35
2023-02-24T09:53:19.810Z,8.33
2023-02-24T09:56:05.655Z,8.42
2023-02-24T09:58:47.608Z,8.48
2023-02-24T10:01:54.265Z,8.50
2023-02-24T10:04:53.812Z,8.65
2023-02-24T10:07:30.232Z,8.65
2023-02-24T10:10:27.841Z,8.68
2023-02-24T10:13:30.058Z,8.67
2023-02-24T10:15:59.203Z,8.70
2023-02-24T10:19:14.928Z,8.78
2023-02-24T10:22:00.189Z,8.88
2023-02-24T10:24:47.237Z,8.87
2023-02-24T10:27:27.494Z,8.90
2023-02-24T10:30:19.542Z,8.93
2023-02-24T10:32:59.046Z,9.13
2023-02-24T10:35:33.326Z,9.08
2023-02-24T10:38:05.920Z,8.94
2023-02-24T10:40:46.630Z,9.09
2023-02-24T10:43:29.849Z,9.24
2023-02-24T10:46:17.218Z,9.36
2023-02-24T10:48:52.447Z,9.49
2023-02-24T10:51:30.203Z,9.54
2023-02-24T10:54:22.203Z,9.51
2023-02-24T10:57:07.589Z,9.60
2023-02-24T10:59:58.470Z,9.86
2023-02-24T11:02:29.928Z,9.98
2023-02-24T11:04:58.287Z,10.18
2023-02-24T11:07:25.405Z,10.18
2023-02-24T12:11:43.030Z,11.56
2023-02-24T12:27:42.356Z,11.06
2023-02-24T12:35:40.748Z,10.94
2023-02-24T12:38:35.878Z,10.89
2023-02-24T12:41:39.085Z,10.68
2023-02-24T12:57:41.657Z,11.01
2023-02-24T13:00:18.094Z,10.68
2023-02-24T13:10:54.890Z,10.65
2023-02-24T13:21:24.657Z,10.52
2023-02-24T13:24:02.546Z,10.48
2023-02-24T13:31:53.178Z,10.36
2023-02-24T13:34:26.376Z,10.47
2023-02-24T13:36:56.495Z,10.40
2023-02-24T13:42:19.504Z,10.34
2023-02-24T13:47:53.298Z,10.40
2023-02-24T14:09:35.032Z,10.31
2023-02-24T14:14:37.233Z,9.93
2023-02-24T14:19:39.011Z,10.21
2023-02-24T14:30:06.154Z,10.13
2023-02-24T14:32:33.926Z,10.05
2023-02-24T14:35:00.378Z,10.00
2023-02-24T14:37:30.023Z,10.07
2023-02-24T14:48:01.526Z,9.81
2023-02-24T15:01:23.967Z,9.78
2023-02-24T15:03:54.102Z,9.79
2023-02-24T15:06:29.024Z,9.84
2023-02-24T16:51:25.230Z,8.64
2023-02-24T16:59:16.036Z,8.20
2023-02-24T17:01:42.638Z,8.30
2023-02-24T17:04:10.928Z,8.11
2023-02-24T17:06:37.261Z,8.09
2023-02-24T17:09:03.611Z,7.87
2023-02-24T17:11:30.013Z,7.84
2023-02-24T17:13:56.329Z,7.71
2023-02-24T17:16:22.930Z,7.52
2023-02-24T17:18:49.462Z,7.63
2023-02-24T17:21:16.775Z,7.52
2023-02-24T17:23:43.548Z,7.47
2023-02-24T17:26:14.096Z,7.24
2023-02-24T17:28:40.759Z,7.28
2023-02-24T17:31:07.490Z,7.07
2023-02-24T17:33:34.503Z,7.10
2023-02-24T17:36:00.879Z,7.01
2023-02-24T17:38:27.239Z,6.86
2023-02-24T17:40:55.481Z,6.75
2023-02-24T17:43:21.801Z,6.81
2023-02-24T17:45:48.311Z,6.67
2023-02-24T17:48:15.779Z,6.74
2023-02-24T17:50:43.195Z,6.61
2023-02-24T17:53:09.889Z,6.67
2023-02-24T17:55:36.226Z,6.54
2023-02-24T17:58:02.677Z,6.41
2023-02-24T18:00:29.077Z,6.31
2023-02-24T18:02:56.037Z,6.44
2023-02-24T18:05:22.421Z,6.34
2023-02-24T18:07:48.757Z,6.23
2023-02-24T18:10:15.348Z,6.24
2023-02-24T18:12:41.741Z,6.30
2023-02-24T18:15:09.464Z,6.26
2023-02-24T18:17:37.644Z,6.14
2023-02-24T18:20:05.955Z,6.08
2023-02-24T18:22:32.355Z,5.97
2023-02-24T18:24:59.276Z,6.02
2023-02-24T18:27:25.661Z,6.00
2023-02-24T18:29:53.029Z,5.87
2023-02-24T18:32:20.238Z,5.89
2023-02-24T18:34:46.782Z,5.73
2023-02-24T18:37:13.138Z,5.83
2023-02-24T18:39:39.502Z,5.70
2023-02-24T18:42:05.938Z,5.72
2023-02-24T18:44:32.442Z,5.74
2023-02-24T18:46:58.884Z,5.65
2023-02-24T18:49:25.293Z,5.70
2023-02-24T18:51:51.609Z,5.76
2023-02-24T18:54:17.998Z,5.60
2023-02-24T18:56:44.327Z,5.56
2023-02-24T18:59:10.700Z,5.64
2023-02-24T19:01:39.060Z,5.63
2023-02-24T19:04:07.773Z,5.50
2023-02-24T19:06:36.155Z,5.56
2023-02-24T19:09:10.193Z,5.60
2023-02-24T19:11:37.632Z,5.52
2023-02-24T19:14:05.009Z,5.51
2023-02-24T19:16:31.936Z,5.58
2023-02-24T19:18:59.782Z,5.52
2023-02-24T19:21:27.669Z,5.54
2023-02-24T19:23:54.017Z,5.52
2023-02-24T19:26:25.664Z,5.54
2023-02-24T19:28:53.133Z,5.57
2023-02-24T19:31:26.277Z,5.46
2023-02-24T19:33:59.957Z,5.45
2023-02-24T19:36:27.404Z,5.42
2023-02-24T19:38:53.847Z,5.45
2023-02-24T19:41:20.306Z,5.42
2023-02-24T19:43:46.843Z,5.45
2023-02-24T19:46:14.603Z,5.40
2023-02-24T19:48:41.445Z,5.27
2023-02-24T19:51:19.854Z,5.43
2023-02-24T19:53:47.081Z,5.37
2023-02-24T19:56:13.697Z,5.34
2023-02-24T19:58:40.398Z,5.34
2023-02-24T20:01:09.261Z,5.52
2023-02-24T20:03:40.842Z,5.47
2023-02-24T20:06:24.954Z,5.44
2023-02-24T20:08:52.497Z,5.49
2023-02-24T20:11:18.979Z,5.47
2023-02-24T20:13:46.395Z,5.40
2023-02-24T20:16:15.725Z,5.45
2023-02-24T20:18:42.847Z,5.51
2023-02-24T20:21:12.566Z,5.43
2023-02-24T20:23:40.710Z,5.38
2023-02-24T20:26:07.500Z,5.44
2023-02-24T20:28:33.881Z,5.46
2023-02-24T20:31:07.100Z,5.54
2023-02-24T20:33:33.544Z,5.59
2023-02-24T20:36:00.201Z,5.53
2023-02-24T20:38:26.548Z,5.48
2023-02-24T20:41:00.565Z,5.45
2023-02-24T20:43:27.933Z,5.45
2023-02-24T20:45:54.699Z,5.53
2023-02-24T20:48:21.621Z,5.45
2023-02-24T20:50:48.071Z,5.57
2023-02-24T20:53:14.474Z,5.51
2023-02-24T20:55:40.819Z,5.52
2023-02-24T20:58:07.265Z,5.57
2023-02-24T21:00:34.149Z,5.51
2023-02-24T21:03:00.936Z,5.50
2023-02-24T21:05:27.587Z,5.54
2023-02-24T21:07:54.107Z,5.50
2023-02-24T21:10:25.722Z,5.50
2023-02-24T21:12:52.615Z,5.63
2023-02-24T21:15:19.852Z,5.49
2023-02-24T21:17:46.159Z,5.56
2023-02-24T21:20:13.140Z,5.53
2023-02-24T21:22:40.380Z,5.49
2023-02-24T21:25:08.002Z,5.56
2023-02-24T21:27:34.322Z,5.44
2023-02-24T21:30:00.634Z,5.41
2023-02-24T21:32:27.032Z,5.50
2023-02-24T21:34:53.380Z,5.42
2023-02-24T21:37:19.747Z,5.38
2023-02-24T21:39:46.089Z,5.29
2023-02-24T21:42:12.472Z,5.21
2023-02-24T21:44:44.413Z,5.25
2023-02-24T21:47:10.963Z,5.33
2023-02-24T21:49:37.428Z,5.37
2023-02-24T21:52:09.686Z,5.38
2023-02-24T21:54:36.025Z,5.35
2023-02-24T21:57:02.413Z,5.34
2023-02-24T21:59:28.972Z,5.33
2023-02-24T22:01:55.602Z,5.36
2023-02-24T22:04:22.701Z,5.34
2023-02-24T22:06:49.078Z,5.46
2023-02-24T22:09:19.099Z,5.35
2023-02-24T22:11:46.815Z,5.43
2023-02-24T22:14:14.300Z,5.36
2023-02-24T22:16:41.865Z,5.45
2023-02-24T22:19:08.728Z,5.40
2023-02-24T22:21:35.213Z,5.46
2023-02-24T22:24:02.926Z,5.48
2023-02-24T22:26:31.812Z,5.53
2023-02-24T22:28:59.474Z,5.48
2023-02-24T22:31:29.599Z,5.48
2023-02-24T22:33:56.022Z,5.41
2023-02-24T22:36:28.303Z,5.45
2023-02-24T22:38:56.308Z,5.47
2023-02-24T22:41:26.376Z,5.44
2023-02-24T22:43:53.991Z,5.38
2023-02-24T22:46:27.007Z,5.37
2023-02-24T22:48:57.182Z,5.25
2023-02-24T22:51:24.889Z,5.22
2023-02-24T22:53:51.869Z,5.20
2023-02-24T22:56:21.883Z,5.15
2023-02-24T22:58:48.578Z,5.08
2023-02-24T23:01:24.438Z,5.03
2023-02-24T23:03:51.276Z,4.90
2023-02-24T23:06:22.179Z,4.85
2023-02-24T23:08:50.351Z,4.86
2023-02-24T23:11:20.501Z,4.71
2023-02-24T23:13:48.726Z,4.73
2023-02-24T23:16:20.015Z,4.60
2023-02-24T23:18:50.762Z,4.61
2023-02-24T23:21:24.006Z,4.52
2023-02-24T23:23:56.690Z,4.50
2023-02-24T23:26:28.543Z,4.55
2023-02-24T23:28:55.113Z,4.34
2023-02-24T23:31:22.114Z,4.29
2023-02-24T23:33:50.409Z,4.40
2023-02-24T23:36:17.868Z,4.38
2023-02-24T23:38:45.386Z,4.41
2023-02-24T23:41:12.142Z,4.41
2023-02-24T23:43:38.836Z,4.43
2023-02-24T23:46:07.311Z,4.42
2023-02-24T23:48:33.756Z,4.35
2023-02-24T23:51:03.373Z,4.31
2023-02-24T23:53:29.693Z,4.23
2023-02-24T23:55:56.032Z,4.15
2023-02-24T23:58:22.388Z,4.19
